Time;durP1;ratioP1;P1;durP2;ratioP2;P2;SDS_P1;SDS_P2;PMS_P1;PMS_P2;Temp;Humidity;BMP_temperature;BMP_pressure;BME280_temperature;BME280_humidity;BME280_pressure;Samples;Min_cycle;Max_cycle;Signal;HPM_P1;HPM_P2
2023/07/08 00:00:38;;;;;;;16.95;5.70;;;;;;;19.41;98.73;101472.41;5013104;28;20029;-64
2023/07/08 00:03:03;;;;;;;15.45;5.60;;;;;;;19.43;99.51;101475.06;5012856;28;20029;-61
2023/07/08 00:05:29;;;;;;;18.42;5.90;;;;;;;19.39;97.54;101474.22;5013100;28;20057;-68
2023/07/08 00:07:54;;;;;;;16.38;5.70;;;;;;;19.36;97.27;101468.06;5008895;28;20048;-63
2023/07/08 00:10:25;;;;;;;15.70;5.60;;;;;;;19.40;99.68;101473.31;5012812;28;20030;-62
2023/07/08 00:12:52;;;;;;;16.90;5.57;;;;;;;19.28;100.00;101473.56;5012843;28;20061;-63
2023/07/08 00:15:21;;;;;;;18.55;5.95;;;;;;;19.23;99.09;101470.13;5012964;28;20037;-70
2023/07/08 00:17:46;;;;;;;18.40;6.28;;;;;;;19.11;100.00;101463.25;5013512;28;20088;-61
2023/07/08 00:20:22;;;;;;;17.27;6.40;;;;;;;18.99;100.00;101467.94;5016771;28;20025;-61
2023/07/08 00:22:49;;;;;;;18.10;6.50;;;;;;;18.88;100.00;101458.38;5016753;28;20018;-61
2023/07/08 00:25:16;;;;;;;17.10;5.97;;;;;;;18.74;100.00;101459.50;5016945;28;20030;-69
2023/07/08 00:27:41;;;;;;;17.60;6.20;;;;;;;18.73;100.00;101463.09;5016554;28;20365;-70
2023/07/08 00:30:20;;;;;;;18.50;6.40;;;;;;;18.77;100.00;101453.19;5016634;28;20033;-61
2023/07/08 00:32:46;;;;;;;17.65;6.28;;;;;;;18.72;100.00;101455.09;5016767;28;20026;-68
2023/07/08 00:35:11;;;;;;;16.77;5.97;;;;;;;18.65;100.00;101448.97;5016733;28;20041;-61
2023/07/08 00:37:37;;;;;;;17.48;6.13;;;;;;;18.59;100.00;101454.44;5016569;28;20377;-60
2023/07/08 00:40:14;;;;;;;17.80;6.00;;;;;;;18.58;100.00;101458.03;5016651;28;20105;-70
2023/07/08 00:42:40;;;;;;;17.95;6.20;;;;;;;18.59;100.00;101446.41;5016670;28;20028;-61
2023/07/08 00:45:22;;;;;;;17.20;6.15;;;;;;;18.60;100.00;101449.06;5016626;28;20481;-70
2023/07/08 00:47:50;;;;;;;17.60;6.10;;;;;;;18.53;100.00;101451.88;5016297;28;20461;-71
2023/07/08 00:50:15;;;;;;;18.92;6.60;;;;;;;18.52;100.00;101444.75;5016234;28;20053;-61
2023/07/08 00:52:42;;;;;;;18.35;6.55;;;;;;;18.43;100.00;101444.00;5016283;28;20038;-70
2023/07/08 00:55:09;;;;;;;18.10;6.40;;;;;;;18.44;100.00;101442.25;5016141;28;20038;-64
2023/07/08 00:57:40;;;;;;;18.05;6.40;;;;;;;18.31;100.00;101432.69;5016004;28;20125;-68
2023/07/08 01:00:09;;;;;;;18.73;6.40;;;;;;;18.29;100.00;101441.59;5016312;28;20108;-68
2023/07/08 01:02:41;;;;;;;18.77;6.50;;;;;;;18.22;100.00;101439.09;5016229;28;20029;-68
2023/07/08 01:05:11;;;;;;;17.38;6.18;;;;;;;18.17;100.00;101441.81;5016099;28;20030;-63
2023/07/08 01:07:40;;;;;;;19.08;6.47;;;;;;;18.19;100.00;101444.47;5015946;28;20029;-68
2023/07/08 01:10:12;;;;;;;17.60;6.22;;;;;;;18.17;100.00;101446.28;5016263;28;20030;-62
2023/07/08 01:12:42;;;;;;;18.23;6.38;;;;;;;18.10;100.00;101441.06;5015864;28;20022;-68
2023/07/08 01:15:09;;;;;;;16.95;6.03;;;;;;;18.09;100.00;101439.28;5015756;28;20536;-66
2023/07/08 01:17:35;;;;;;;18.33;6.00;;;;;;;18.12;100.00;101439.22;5015844;28;20401;-65
2023/07/08 01:20:06;;;;;;;18.98;6.40;;;;;;;18.08;100.00;101440.19;5015697;28;20021;-63
2023/07/08 01:22:35;;;;;;;18.58;6.15;;;;;;;18.04;100.00;101437.59;5015966;28;20461;-68
2023/07/08 01:25:04;;;;;;;18.40;6.28;;;;;;;18.05;100.00;101440.25;5015895;28;20026;-67
2023/07/08 01:27:32;;;;;;;16.20;5.88;;;;;;;17.97;100.00;101431.50;5012226;28;20068;-64
2023/07/08 01:29:59;;;;;;;17.58;6.00;;;;;;;17.87;100.00;101438.75;5014246;28;20029;-62
2023/07/08 01:32:25;;;;;;;17.77;5.97;;;;;;;17.87;100.00;101437.88;5015685;28;20021;-63
2023/07/08 01:35:01;;;;;;;17.88;5.90;;;;;;;17.81;100.00;101440.63;5015590;28;20492;-68
2023/07/08 01:37:40;;;;;;;17.65;6.00;;;;;;;17.78;100.00;101444.25;5015391;28;20037;-68
2023/07/08 01:40:21;;;;;;;17.80;5.88;;;;;;;17.76;100.00;101433.56;5012706;28;20053;-68
2023/07/08 01:42:46;;;;;;;16.85;5.80;;;;;;;17.72;100.00;101426.50;5015252;28;20030;-67
2023/07/08 01:45:13;;;;;;;17.85;6.30;;;;;;;17.66;100.00;101433.75;5015438;28;20028;-60
2023/07/08 01:47:41;;;;;;;17.67;6.43;;;;;;;17.62;100.00;101432.00;5015251;28;20034;-65
2023/07/08 01:50:07;;;;;;;17.48;6.30;;;;;;;17.55;100.00;101428.56;5015199;28;20040;-61
2023/07/08 01:52:32;;;;;;;19.05;6.18;;;;;;;17.56;100.00;101430.31;5015305;28;20030;-66
2023/07/08 01:54:58;;;;;;;17.65;6.03;;;;;;;17.48;100.00;101418.88;5015296;28;20038;-66
2023/07/08 01:57:23;;;;;;;17.73;6.18;;;;;;;17.51;100.00;101419.69;5014845;28;20030;-67
2023/07/08 01:59:50;;;;;;;18.80;6.40;;;;;;;17.48;100.00;101418.88;5015022;28;20037;-67
2023/07/08 02:02:15;;;;;;;18.67;6.10;;;;;;;17.42;100.00;101414.50;4997333;28;20032;-62
2023/07/08 02:04:40;;;;;;;18.58;6.18;;;;;;;17.39;100.00;101415.44;5014847;28;20381;-66
2023/07/08 02:07:06;;;;;;;17.10;6.10;;;;;;;17.35;100.00;101403.00;5015266;28;20030;-66
2023/07/08 02:09:31;;;;;;;17.08;5.75;;;;;;;17.33;100.00;101404.84;5015010;28;20026;-65
2023/07/08 02:11:56;;;;;;;18.60;6.25;;;;;;;17.35;100.00;101407.50;5014807;28;20022;-66
2023/07/08 02:14:22;;;;;;;17.70;6.28;;;;;;;17.30;100.00;101399.53;5014857;28;20381;-63
2023/07/08 02:16:48;;;;;;;18.92;6.15;;;;;;;17.28;100.00;101397.78;5014618;28;20021;-65
2023/07/08 02:19:13;;;;;;;18.20;6.40;;;;;;;17.26;100.00;101395.16;5014626;28;20120;-62
2023/07/08 02:21:39;;;;;;;17.08;5.97;;;;;;;17.34;100.00;101393.22;5014743;28;20423;-62
2023/07/08 02:24:05;;;;;;;17.85;6.13;;;;;;;17.25;100.00;101388.91;5014536;28;20091;-64
2023/07/08 02:26:33;;;;;;;18.52;6.10;;;;;;;17.26;100.00;101387.13;5014275;28;20539;-66
2023/07/08 02:29:00;;;;;;;17.70;6.03;;;;;;;17.31;100.00;101384.38;5011060;28;20037;-66
2023/07/08 02:31:26;;;;;;;17.88;6.30;;;;;;;17.20;100.00;101387.22;5014403;28;20113;-65
2023/07/08 02:33:52;;;;;;;17.13;6.10;;;;;;;17.17;100.00;101376.56;5014367;28;20038;-62
2023/07/08 02:36:18;;;;;;;18.25;6.25;;;;;;;17.15;100.00;101375.72;5014459;28;20034;-66
2023/07/08 02:38:43;;;;;;;17.73;6.35;;;;;;;17.13;100.00;101373.06;5014236;28;20030;-71
2023/07/08 02:41:09;;;;;;;17.83;6.80;;;;;;;17.04;100.00;101368.75;5013810;28;20034;-60
2023/07/08 02:43:34;;;;;;;19.83;7.28;;;;;;;17.06;100.00;101374.06;5014533;28;20053;-71
2023/07/08 02:45:59;;;;;;;18.42;6.88;;;;;;;17.03;100.00;101369.63;5014113;28;20034;-64
2023/07/08 02:48:25;;;;;;;19.13;6.80;;;;;;;17.01;100.00;101373.25;5014474;28;20038;-61
2023/07/08 02:50:50;;;;;;;19.77;6.95;;;;;;;17.00;100.00;101369.69;5013985;28;20109;-60
2023/07/08 02:53:15;;;;;;;18.35;6.80;;;;;;;16.86;100.00;101361.84;5013951;28;20503;-60
2023/07/08 02:55:42;;;;;;;18.10;6.90;;;;;;;16.87;100.00;101376.97;5013952;28;20038;-65
2023/07/08 02:58:09;;;;;;;20.10;7.15;;;;;;;16.87;100.00;101384.97;5013933;28;20109;-60
2023/07/08 03:00:37;;;;;;;18.33;6.57;;;;;;;16.81;100.00;101389.50;5013847;28;20041;-70
2023/07/08 03:03:03;;;;;;;18.90;6.93;;;;;;;16.73;100.00;101393.16;5014340;28;20381;-60
2023/07/08 03:05:28;;;;;;;18.35;7.05;;;;;;;16.73;100.00;101393.16;5013871;28;20037;-63
2023/07/08 03:07:54;;;;;;;18.92;6.78;;;;;;;16.79;100.00;101401.97;5013629;28;20034;-71
2023/07/08 03:10:19;;;;;;;18.17;6.97;;;;;;;16.74;100.00;101399.38;5013877;28;20041;-62
2023/07/08 03:12:44;;;;;;;18.20;6.70;;;;;;;16.70;100.00;101397.63;5013584;28;20030;-69
2023/07/08 03:15:10;;;;;;;17.02;6.57;;;;;;;16.66;100.00;101391.47;5013574;28;20034;-64
2023/07/08 03:17:35;;;;;;;18.17;6.97;;;;;;;16.65;100.00;101400.38;5013678;28;20371;-62
2023/07/08 03:20:00;;;;;;;18.75;6.95;;;;;;;16.68;100.00;101394.13;5013511;28;20049;-68
2023/07/08 03:22:26;;;;;;;18.23;7.10;;;;;;;16.69;100.00;101393.22;5013431;28;20038;-60
2023/07/08 03:24:51;;;;;;;18.52;6.68;;;;;;;16.62;100.00;101388.84;5013605;28;20068;-70
2023/07/08 03:27:16;;;;;;;19.20;6.78;;;;;;;16.58;100.00;101384.44;5013156;28;20504;-69
2023/07/08 03:29:42;;;;;;;19.10;7.07;;;;;;;16.56;100.00;101384.47;5013560;28;20500;-69
2023/07/08 03:32:10;;;;;;;18.13;6.63;;;;;;;16.58;100.00;101382.66;5013257;28;20057;-67
2023/07/08 03:34:36;;;;;;;18.38;6.90;;;;;;;16.52;100.00;101388.94;5013326;28;20556;-70
2023/07/08 03:37:01;;;;;;;18.50;6.93;;;;;;;16.50;100.00;101400.56;5013632;28;20125;-70
2023/07/08 03:39:27;;;;;;;18.27;6.65;;;;;;;16.43;100.00;101398.88;5009438;28;20034;-61
2023/07/08 03:41:53;;;;;;;18.10;6.45;;;;;;;16.45;100.00;101402.38;5013201;28;20022;-61
2023/07/08 03:44:18;;;;;;;18.17;6.80;;;;;;;16.42;100.00;101400.63;5013347;28;20029;-65
2023/07/08 03:46:49;;;;;;;21.05;6.93;;;;;;;16.47;100.00;101400.56;5013144;28;20075;-61
2023/07/08 03:49:15;;;;;;;18.20;6.65;;;;;;;16.47;100.00;101408.56;5013060;28;20075;-67
2023/07/08 03:51:41;;;;;;;17.38;6.70;;;;;;;16.44;100.00;101405.94;5013288;28;20034;-70
2023/07/08 03:54:11;;;;;;;17.52;6.90;;;;;;;16.44;100.00;101408.63;5012365;28;20026;-60
2023/07/08 03:56:36;;;;;;;18.05;6.60;;;;;;;16.42;100.00;101423.78;5012850;28;20037;-61
2023/07/08 03:59:02;;;;;;;19.05;6.60;;;;;;;16.37;100.00;101427.38;5013152;28;20026;-66
2023/07/08 04:01:27;;;;;;;18.42;6.82;;;;;;;16.43;100.00;101420.22;5008907;28;20033;-63
2023/07/08 04:03:54;;;;;;;18.98;6.78;;;;;;;16.38;100.00;101418.47;5013123;28;20473;-60
2023/07/08 04:06:20;;;;;;;18.05;7.07;;;;;;;16.39;100.00;101424.69;5013117;28;20037;-61
2023/07/08 04:08:46;;;;;;;18.15;6.90;;;;;;;16.43;100.00;101414.88;5012810;28;20386;-71
2023/07/08 04:11:15;;;;;;;18.52;7.28;;;;;;;16.39;100.00;101411.34;5012826;28;20121;-70
2023/07/08 04:13:40;;;;;;;18.58;7.30;;;;;;;16.46;100.00;101422.84;5012973;28;20037;-70
2023/07/08 04:16:08;;;;;;;19.30;7.57;;;;;;;16.44;100.00;101414.84;5012729;28;20034;-64
2023/07/08 04:18:33;;;;;;;20.20;7.85;;;;;;;16.50;100.00;101421.91;5012765;28;20033;-61
2023/07/08 04:20:59;;;;;;;20.58;8.25;;;;;;;16.49;100.00;101415.66;5012868;28;20499;-71
2023/07/08 04:23:25;;;;;;;19.20;7.82;;;;;;;16.44;100.00;101419.28;5012764;28;20485;-71
2023/07/08 04:25:53;;;;;;;20.02;8.05;;;;;;;16.41;100.00;101427.31;5012746;28;20026;-71
2023/07/08 04:28:19;;;;;;;19.20;7.80;;;;;;;16.48;100.00;101429.03;5012767;28;20054;-71
2023/07/08 04:30:44;;;;;;;20.05;7.85;;;;;;;16.47;100.00;101425.50;5012676;28;20081;-72
2023/07/08 04:33:12;;;;;;;18.85;7.93;;;;;;;16.50;100.00;101420.13;5012588;28;20030;-71
2023/07/08 04:35:39;;;;;;;19.42;8.10;;;;;;;16.55;100.00;101412.06;5012808;28;20033;-71
2023/07/08 04:38:09;;;;;;;19.48;8.40;;;;;;;16.55;100.00;101404.91;5012526;28;20026;-72
2023/07/08 04:40:39;;;;;;;19.08;8.70;;;;;;;16.60;100.00;101418.22;5012589;28;20030;-72
2023/07/08 04:43:05;;;;;;;19.40;8.65;;;;;;;16.65;100.00;101416.38;5012635;28;20022;-66
2023/07/08 04:45:31;;;;;;;19.85;8.60;;;;;;;16.69;100.00;101415.44;4995133;28;20026;-69
2023/07/08 04:47:56;;;;;;;20.17;9.20;;;;;;;16.76;100.00;101412.69;5012535;28;20079;-71
2023/07/08 04:50:22;;;;;;;21.02;9.23;;;;;;;16.80;100.00;101417.09;5012672;28;20124;-71
2023/07/08 04:52:47;;;;;;;19.17;9.30;;;;;;;16.83;100.00;101414.38;5012470;28;20496;-72
2023/07/08 04:55:13;;;;;;;20.48;9.80;;;;;;;16.85;100.00;101415.28;5012331;28;20036;-71
2023/07/08 04:57:39;;;;;;;21.17;9.88;;;;;;;16.90;100.00;101418.78;5012476;28;20038;-72
2023/07/08 05:00:08;;;;;;;20.58;10.10;;;;;;;16.97;100.00;101411.59;5012426;28;20354;-72
2023/07/08 05:02:33;;;;;;;21.27;10.88;;;;;;;17.02;100.00;101407.97;5012385;28;20036;-71
2023/07/08 05:04:59;;;;;;;20.85;10.75;;;;;;;17.07;100.00;101414.09;4997563;28;20042;-72
2023/07/08 05:07:24;;;;;;;20.77;10.52;;;;;;;17.11;100.00;101408.72;5015987;28;20040;-72
2023/07/08 05:09:49;;;;;;;21.58;10.85;;;;;;;17.16;100.00;101417.56;5015905;28;20548;-71
2023/07/08 05:12:15;;;;;;;20.83;10.77;;;;;;;17.27;100.00;101417.41;5016120;28;20478;-70
2023/07/08 05:14:40;;;;;;;21.00;10.65;;;;;;;17.28;100.00;101411.16;5015857;28;20439;-71
2023/07/08 05:17:05;;;;;;;21.80;10.55;;;;;;;17.34;100.00;101406.59;5015745;28;20064;-71
2023/07/08 05:19:31;;;;;;;23.38;10.98;;;;;;;17.36;100.00;101412.81;5016235;28;20065;-72
2023/07/08 05:21:56;;;;;;;20.92;9.95;;;;;;;17.36;100.00;101410.13;5015927;28;20026;-72
2023/07/08 05:24:22;;;;;;;20.58;9.73;;;;;;;17.38;100.00;101410.13;5015620;28;20473;-71
2023/07/08 05:26:47;;;;;;;21.83;10.48;;;;;;;17.43;100.00;101417.16;5015678;28;20042;-71
2023/07/08 05:29:12;;;;;;;23.08;10.60;;;;;;;17.50;100.00;101411.72;5015615;28;20440;-72
2023/07/08 05:31:38;;;;;;;20.10;9.57;;;;;;;17.56;100.00;101419.63;5015945;28;20125;-66
2023/07/08 05:34:03;;;;;;;20.88;9.65;;;;;;;17.62;100.00;101408.84;5015742;28;20029;-70
2023/07/08 05:36:28;;;;;;;20.58;8.90;;;;;;;17.73;100.00;101408.66;5015599;28;20596;-71
2023/07/08 05:38:53;;;;;;;21.92;8.65;;;;;;;17.84;100.00;101408.47;5015519;28;20109;-64
2023/07/08 05:41:19;;;;;;;21.25;8.57;;;;;;;17.90;100.00;101400.41;5015326;28;20037;-61
2023/07/08 05:43:44;;;;;;;19.73;8.50;;;;;;;18.04;100.00;101398.38;5015254;28;20045;-70
2023/07/08 05:46:10;;;;;;;20.15;8.20;;;;;;;18.12;100.00;101401.78;5015463;28;20054;-63
2023/07/08 05:48:36;;;;;;;19.15;7.70;;;;;;;18.20;100.00;101404.34;5015215;28;20030;-61
2023/07/08 05:51:01;;;;;;;18.83;7.82;;;;;;;18.30;100.00;101405.00;5015211;28;20491;-70
2023/07/08 05:53:27;;;;;;;18.75;7.50;;;;;;;18.44;100.00;101408.31;5015288;28;20030;-70
2023/07/08 05:55:52;;;;;;;20.30;7.57;;;;;;;18.57;100.00;101405.41;5014889;28;20400;-61
2023/07/08 05:58:18;;;;;;;18.85;7.32;;;;;;;18.66;100.00;101405.22;5015044;28;20450;-64
2023/07/08 06:00:43;;;;;;;19.27;7.40;;;;;;;18.74;100.00;101411.31;5015410;28;20026;-70
2023/07/08 06:03:09;;;;;;;20.08;7.38;;;;;;;18.78;100.00;101406.75;4997786;28;20113;-71
2023/07/08 06:05:36;;;;;;;20.00;7.60;;;;;;;18.85;100.00;101405.72;5014988;28;20021;-63
2023/07/08 06:08:02;;;;;;;20.50;7.55;;;;;;;18.95;100.00;101403.75;5014935;28;20030;-61
2023/07/08 06:10:27;;;;;;;18.85;7.68;;;;;;;18.99;100.00;101411.69;5014808;28;20092;-69
2023/07/08 06:12:53;;;;;;;19.95;7.97;;;;;;;19.09;100.00;101422.19;5015235;28;20036;-67
2023/07/08 06:15:18;;;;;;;19.60;7.88;;;;;;;19.16;100.00;101414.00;5013957;28;20060;-66
2023/07/08 06:17:43;;;;;;;20.73;7.50;;;;;;;19.26;100.00;101414.66;5014547;28;20053;-62
2023/07/08 06:20:09;;;;;;;20.02;7.20;;;;;;;19.38;100.00;101424.22;5014768;28;20432;-68
2023/07/08 06:22:34;;;;;;;18.50;7.57;;;;;;;19.49;100.00;101422.16;5014600;28;20025;-64
2023/07/08 06:25:00;;;;;;;19.15;7.50;;;;;;;19.59;100.00;101427.31;5014866;28;20058;-65
2023/07/08 06:27:25;;;;;;;19.17;7.63;;;;;;;19.66;100.00;101428.94;5014495;28;20104;-60
2023/07/08 06:29:53;;;;;;;20.10;7.85;;;;;;;19.74;100.00;101423.38;5014350;28;20081;-68
2023/07/08 06:32:18;;;;;;;19.67;7.55;;;;;;;19.86;100.00;101420.41;4996902;28;20060;-66
2023/07/08 06:34:43;;;;;;;19.98;6.80;;;;;;;19.98;100.00;101424.56;5014798;28;20517;-68
2023/07/08 06:37:09;;;;;;;19.48;7.22;;;;;;;20.08;100.00;101426.13;5014124;28;20042;-68
2023/07/08 06:39:34;;;;;;;19.33;7.15;;;;;;;20.20;100.00;101423.09;5014230;28;20022;-69
2023/07/08 06:42:00;;;;;;;21.52;7.47;;;;;;;20.33;100.00;101428.16;5014658;28;20046;-61
2023/07/08 06:44:26;;;;;;;19.85;7.40;;;;;;;20.47;100.00;101434.00;5014336;28;20030;-68
2023/07/08 06:46:51;;;;;;;18.90;7.00;;;;;;;20.55;100.00;101423.06;5014105;28;20030;-66
2023/07/08 06:49:17;;;;;;;19.48;6.93;;;;;;;20.63;100.00;101426.41;5014317;28;20068;-62
2023/07/08 06:51:44;;;;;;;19.58;7.30;;;;;;;20.72;100.00;101427.97;5013999;28;20045;-65
2023/07/08 06:54:11;;;;;;;20.67;7.35;;;;;;;20.76;100.00;101418.91;5013977;28;20045;-66
2023/07/08 06:56:40;;;;;;;19.55;7.70;;;;;;;20.84;100.00;101424.09;5014077;28;20080;-64
2023/07/08 06:59:09;;;;;;;20.08;7.32;;;;;;;20.94;100.00;101424.66;5013868;28;20029;-63
2023/07/08 07:01:36;;;;;;;20.65;7.38;;;;;;;21.02;95.72;101419.94;5013846;28;20028;-62
2023/07/08 07:04:03;;;;;;;18.88;7.13;;;;;;;21.09;97.03;101418.84;5014001;28;20033;-67
2023/07/08 07:06:28;;;;;;;19.33;7.18;;;;;;;21.19;96.46;101414.94;5014039;28;20037;-70
2023/07/08 07:08:53;;;;;;;21.27;7.63;;;;;;;21.32;95.70;101410.06;4996188;28;20042;-71
2023/07/08 07:11:19;;;;;;;19.55;7.18;;;;;;;21.42;97.25;101403.47;5013883;28;20037;-70
2023/07/08 07:13:45;;;;;;;19.42;6.90;;;;;;;21.48;90.50;101402.38;5013656;28;20034;-71
2023/07/08 07:16:11;;;;;;;20.00;7.50;;;;;;;21.54;90.53;101417.47;5013742;28;20037;-70
2023/07/08 07:18:36;;;;;;;20.15;7.47;;;;;;;21.64;92.42;101412.66;5013694;28;20026;-66
2023/07/08 07:21:01;;;;;;;20.67;7.60;;;;;;;21.72;90.51;101411.47;5013467;28;20037;-65
2023/07/08 07:23:27;;;;;;;20.27;7.45;;;;;;;21.77;90.44;101409.53;5013911;28;20029;-61
2023/07/08 07:25:52;;;;;;;20.52;7.70;;;;;;;21.88;86.81;101416.34;5013374;28;20045;-67
2023/07/08 07:28:17;;;;;;;20.02;7.25;;;;;;;22.00;87.12;101412.34;5013204;28;20050;-70
2023/07/08 07:30:44;;;;;;;19.25;7.15;;;;;;;22.10;87.18;101427.25;5013539;28;20029;-68
2023/07/08 07:33:10;;;;;;;19.95;7.55;;;;;;;22.23;88.26;101415.13;4995905;28;20034;-61
2023/07/08 07:35:35;;;;;;;19.77;7.50;;;;;;;22.37;86.70;101416.50;5013475;28;20032;-64
2023/07/08 07:38:00;;;;;;;21.08;7.45;;;;;;;22.51;87.27;101414.16;5013327;28;20032;-64
2023/07/08 07:40:26;;;;;;;20.45;7.50;;;;;;;22.57;84.78;101416.66;5013139;28;20109;-68
2023/07/08 07:42:51;;;;;;;19.85;7.53;;;;;;;22.72;84.95;101417.00;5013180;28;20114;-69
2023/07/08 07:45:17;;;;;;;19.02;7.68;;;;;;;22.81;81.49;101414.81;5013300;28;20482;-71
2023/07/08 07:47:42;;;;;;;20.48;7.65;;;;;;;22.94;77.34;101417.06;5013047;28;20477;-68
2023/07/08 07:50:09;;;;;;;20.67;7.68;;;;;;;23.13;75.78;101414.56;4995388;28;20441;-68
2023/07/08 07:52:35;;;;;;;20.45;7.80;;;;;;;23.26;73.64;101415.84;5013246;28;20037;-71
2023/07/08 07:55:01;;;;;;;21.58;7.88;;;;;;;23.33;71.86;101411.94;5013007;28;20033;-61
2023/07/08 07:57:26;;;;;;;20.27;7.88;;;;;;;23.50;75.00;101413.06;5012861;28;20393;-70
2023/07/08 07:59:52;;;;;;;19.63;7.35;;;;;;;23.60;75.97;101402.78;5013108;28;20032;-68
2023/07/08 08:02:18;;;;;;;21.15;7.20;;;;;;;23.74;72.70;101413.03;5012902;28;20034;-70
2023/07/08 08:04:44;;;;;;;18.85;6.95;;;;;;;23.87;69.07;101408.88;5013095;28;20026;-71
2023/07/08 08:07:09;;;;;;;22.15;9.20;;;;;;;24.00;68.52;101407.41;5013345;28;20041;-72
2023/07/08 08:09:35;;;;;;;22.55;7.38;;;;;;;24.16;67.01;101406.75;4995294;28;20030;-71
2023/07/08 08:12:03;;;;;;;19.38;6.90;;;;;;;24.32;68.65;101407.81;5013023;28;20030;-72
2023/07/08 08:14:28;;;;;;;19.20;6.75;;;;;;;24.50;69.50;101414.22;5013067;28;20424;-70
2023/07/08 08:16:53;;;;;;;20.15;7.10;;;;;;;24.73;66.88;101425.84;5012594;28;20026;-69
2023/07/08 08:19:19;;;;;;;19.33;6.95;;;;;;;24.84;65.62;101422.63;5012947;28;20516;-72
2023/07/08 08:21:44;;;;;;;20.40;7.25;;;;;;;24.97;64.84;101415.69;5012365;28;20404;-71
2023/07/08 08:24:10;;;;;;;20.50;7.20;;;;;;;25.00;61.06;101423.69;5012546;28;20065;-71
2023/07/08 08:26:35;;;;;;;19.90;7.50;;;;;;;25.05;59.74;101423.47;5012558;28;20057;-71
2023/07/08 08:29:01;;;;;;;19.45;7.05;;;;;;;25.19;60.42;101426.41;5012701;28;20053;-72
2023/07/08 08:31:26;;;;;;;20.27;7.30;;;;;;;25.33;59.02;101435.69;5012830;28;20034;-71
2023/07/08 08:33:52;;;;;;;19.50;7.18;;;;;;;25.49;59.57;101433.13;5013031;28;20128;-71
2023/07/08 08:36:17;;;;;;;18.83;6.68;;;;;;;25.59;58.13;101434.44;5012558;28;20026;-71
2023/07/08 08:38:43;;;;;;;20.45;7.45;;;;;;;25.80;60.80;101437.00;5013241;28;20034;-71
2023/07/08 08:41:17;;;;;;;20.40;7.47;;;;;;;25.96;59.67;101437.97;5016644;28;20022;-71
2023/07/08 08:43:45;;;;;;;20.55;7.20;;;;;;;26.10;57.69;101440.88;5016455;28;20022;-70
2023/07/08 08:46:23;;;;;;;20.80;7.10;;;;;;;26.26;58.52;101446.38;5016309;28;20041;-67
2023/07/08 08:49:00;;;;;;;19.80;6.80;;;;;;;26.48;58.17;101444.38;5016410;28;20029;-68
2023/07/08 08:51:29;;;;;;;20.20;7.43;;;;;;;26.50;56.70;101442.47;5016516;28;20030;-70
2023/07/08 08:53:57;;;;;;;20.45;7.38;;;;;;;26.68;57.28;101449.66;5016427;28;20034;-70
2023/07/08 08:56:27;;;;;;;21.63;7.10;;;;;;;26.86;59.06;101441.47;5016233;28;20350;-70
2023/07/08 08:59:06;;;;;;;20.13;6.93;;;;;;;27.08;58.37;101446.56;5016090;28;20021;-68
2023/07/08 09:01:32;;;;;;;18.30;6.82;;;;;;;27.25;56.67;101445.63;5012439;28;20527;-71
2023/07/08 09:04:04;;;;;;;19.52;7.18;;;;;;;27.33;53.74;101454.19;5016085;28;20030;-70
2023/07/08 09:06:31;;;;;;;;;;;;;;;27.44;56.39;101449.06;5016438;28;20080;-63
2023/07/08 09:09:02;;;;;;;18.83;7.15;;;;;;;27.48;52.38;101456.06;5015793;28;20004;-65
2023/07/08 09:11:49;;;;;;;19.25;6.80;;;;;;;27.63;53.68;101445.31;5016090;28;20022;-67
2023/07/08 09:14:22;;;;;;;19.58;7.20;;;;;;;27.92;52.78;101456.31;5016174;28;20034;-70
2023/07/08 09:17:09;;;;;;;19.83;7.68;;;;;;;27.90;52.55;101450.06;5016019;28;20405;-70
2023/07/08 09:19:41;;;;;;;20.35;7.07;;;;;;;28.02;50.85;101451.19;5012291;28;20543;-69
2023/07/08 09:22:18;;;;;;;19.40;7.15;;;;;;;28.01;51.47;101436.75;5015811;28;20414;-62
2023/07/08 09:24:59;;;;;;;21.33;7.30;;;;;;;28.32;53.67;101433.06;5015540;28;20029;-70
2023/07/08 09:27:24;;;;;;;19.83;7.43;;;;;;;28.61;51.98;101427.66;5015372;28;20130;-70
2023/07/08 09:29:50;;;;;;;20.95;6.90;;;;;;;28.87;49.49;101433.31;5016048;28;20082;-64
2023/07/08 09:32:26;;;;;;;20.30;7.50;;;;;;;29.00;48.59;101441.56;5015695;28;20034;-71
2023/07/08 09:35:01;;;;;;;19.88;7.70;;;;;;;29.09;46.19;101442.81;5015460;28;20033;-71
2023/07/08 09:37:35;;;;;;;20.38;7.45;;;;;;;29.27;48.75;101436.22;5015281;28;20029;-63
2023/07/08 09:40:16;;;;;;;20.17;7.28;;;;;;;29.59;48.38;101432.31;5011681;28;20393;-71
2023/07/08 09:42:44;;;;;;;19.35;6.80;;;;;;;29.77;47.76;101427.50;5012974;28;20030;-61
2023/07/08 09:45:15;;;;;;;20.55;7.55;;;;;;;29.86;47.37;101430.50;5015296;28;20022;-69
2023/07/08 09:47:43;;;;;;;20.08;7.50;;;;;;;30.05;47.64;101423.78;5015325;28;20477;-70
2023/07/08 09:50:29;;;;;;;19.90;7.57;;;;;;;30.22;46.85;101415.31;5014234;28;20156;-61
2023/07/08 09:53:04;;;;;;;19.65;6.90;;;;;;;30.33;45.66;101422.72;5015249;28;20050;-67
2023/07/08 09:55:30;;;;;;;19.15;7.32;;;;;;;30.42;44.08;101415.78;5015187;28;20037;-62
2023/07/08 09:57:57;;;;;;;20.48;7.63;;;;;;;30.54;42.75;101414.06;5014920;28;20046;-67
2023/07/08 10:00:34;;;;;;;19.30;7.35;;;;;;;30.89;44.44;101419.69;5014933;28;20473;-64
2023/07/08 10:03:05;;;;;;;19.50;6.95;;;;;;;31.22;44.44;101423.69;5015157;28;20419;-68
2023/07/08 10:05:33;;;;;;;;;;;;;;;31.33;43.88;101419.28;5015485;28;20022;-68
2023/07/08 10:08:03;;;;;;;19.42;7.20;;;;;;;31.91;40.74;101420.34;5014836;28;19936;-63
2023/07/08 10:10:33;;;;;;;19.17;7.10;;;;;;;33.08;37.49;101423.03;5014747;28;20030;-68
2023/07/08 10:13:03;;;;;;;19.30;6.70;;;;;;;35.01;35.50;101431.22;5015224;28;20477;-69
2023/07/08 10:16:03;;;;;;;20.40;7.13;;;;;;;36.68;32.55;101427.53;5015080;28;20030;-62
2023/07/08 10:18:29;;;;;;;20.35;7.20;;;;;;;38.27;30.15;101421.72;4924097;29;20078;-63
2023/07/08 10:21:33;;;;;;;19.88;6.85;;;;;;;39.30;29.34;101431.97;4996684;28;20045;-69
2023/07/08 10:24:01;;;;;;;19.98;7.13;;;;;;;39.83;28.37;101433.47;4966560;28;20034;-70
2023/07/08 10:26:34;;;;;;;21.95;7.15;;;;;;;40.13;28.21;101417.22;5003642;28;20034;-66
2023/07/08 10:29:25;;;;;;;18.95;7.10;;;;;;;40.59;27.92;101422.19;5006334;28;20392;-63
2023/07/08 10:31:59;;;;;;;;;;;;;;;41.75;28.39;101425.25;5013448;28;20033;-62
2023/07/08 10:34:45;;;;;;;20.33;6.70;;;;;;;41.99;26.18;101419.50;5014613;28;19913;-70
2023/07/08 10:37:25;;;;;;;18.35;6.90;;;;;;;42.12;24.93;101415.25;5011386;28;20026;-66
2023/07/08 10:40:08;;;;;;;17.83;6.65;;;;;;;42.12;24.49;101423.56;5014297;28;20406;-61
2023/07/08 10:43:15;;;;;;;18.60;6.95;;;;;;;42.66;23.95;101426.16;5014145;28;20030;-69
2023/07/08 10:45:52;;;;;;;18.42;6.95;;;;;;;42.44;23.92;101430.72;4993635;28;20392;-68
2023/07/08 10:49:05;;;;;;;19.05;6.90;;;;;;;43.36;23.78;101440.53;5014053;28;20033;-65
2023/07/08 10:51:34;;;;;;;19.38;6.70;;;;;;;43.49;22.38;101434.31;4996638;28;20109;-68
2023/07/08 10:54:03;;;;;;;19.48;6.72;;;;;;;43.63;21.83;101428.88;5014150;28;20164;-63
2023/07/08 10:56:38;;;;;;;18.92;6.90;;;;;;;43.84;22.60;101437.25;5013816;28;20104;-66
2023/07/08 10:59:25;;;;;;;18.50;6.68;;;;;;;44.04;21.00;101443.00;5010389;28;20018;-61
2023/07/08 11:02:22;;;;;;;18.73;6.85;;;;;;;44.28;22.11;101426.91;5012030;28;20476;-67
2023/07/08 11:05:12;;;;;;;19.38;6.30;;;;;;;44.18;20.49;101431.94;5011971;28;20038;-67
2023/07/08 11:07:49;;;;;;;17.48;6.30;;;;;;;44.36;21.61;101423.09;5010569;28;20384;-68
2023/07/08 11:10:17;;;;;;;17.60;6.38;;;;;;;44.64;21.01;101431.47;5013920;28;20030;-64
2023/07/08 11:13:06;;;;;;;18.73;6.45;;;;;;;45.32;20.44;101430.69;5013657;28;20029;-69
2023/07/08 11:15:42;;;;;;;18.48;6.53;;;;;;;44.75;19.38;101427.22;5013452;28;20045;-69
2023/07/08 11:18:18;;;;;;;17.38;6.40;;;;;;;45.13;19.82;101428.72;4992883;28;20432;-70